Time;durP1;ratioP1;P1;durP2;ratioP2;P2;SDS_P1;SDS_P2;PMS_P1;PMS_P2;Temp;Humidity;BMP_temperature;BMP_pressure;BME280_temperature;BME280_humidity;BME280_pressure;Samples;Min_cycle;Max_cycle;Signal;HPM_P1;HPM_P2
2021/04/25 00:00:19;;;;;;;13.80;12.55;;;31.40;93.20;;;;;;4947516;29;20223;-53
2021/04/25 00:02:49;;;;;;;13.18;12.13;;;31.50;93.20;;;;;;4949703;29;20289;-51
2021/04/25 00:05:20;;;;;;;14.43;13.20;;;31.50;93.20;;;;;;4949483;29;20965;-51
2021/04/25 00:07:51;;;;;;;13.70;12.60;;;31.50;93.10;;;;;;4950194;29;20232;-49
2021/04/25 00:10:21;;;;;;;12.85;11.75;;;31.50;93.10;;;;;;4950713;29;20244;-50
2021/04/25 00:12:51;;;;;;;13.82;12.63;;;31.50;93.10;;;;;;4950445;29;20680;-50
2021/04/25 00:15:23;;;;;;;13.15;12.10;;;31.50;93.20;;;;;;4949909;29;20228;-53
2021/04/25 00:17:53;;;;;;;12.75;11.65;;;31.50;93.20;;;;;;4949898;29;20348;-52
2021/04/25 00:20:25;;;;;;;14.23;13.07;;;31.50;93.60;;;;;;4956086;28;20220;-50
2021/04/25 00:22:56;;;;;;;14.80;13.40;;;31.50;93.10;;;;;;4991685;28;20200;-54
2021/04/25 00:25:26;;;;;;;13.90;12.80;;;31.50;93.10;;;;;;4991948;28;21009;-52
2021/04/25 00:27:56;;;;;;;13.27;12.18;;;31.50;93.10;;;;;;4991370;28;20208;-51
2021/04/25 00:30:27;;;;;;;14.02;12.82;;;31.50;93.00;;;;;;4991062;28;20203;-53
2021/04/25 00:32:57;;;;;;;14.82;13.43;;;31.50;93.00;;;;;;4991440;28;20668;-54
2021/04/25 00:35:29;;;;;;;13.27;12.18;;;31.50;93.10;;;;;;4991372;28;20204;-52
2021/04/25 00:37:59;;;;;;;13.77;12.73;;;31.50;93.20;;;;;;4990998;28;20284;-53
2021/04/25 00:40:29;;;;;;;14.10;12.98;;;31.60;93.30;;;;;;4991133;28;20212;-51
2021/04/25 00:43:00;;;;;;;13.52;12.38;;;31.50;93.30;;;;;;4979903;28;20672;-54
2021/04/25 00:45:31;;;;;;;13.75;12.65;;;31.60;93.30;;;;;;4991600;28;20210;-54
2021/04/25 00:48:01;;;;;;;14.65;13.45;;;31.60;93.30;;;;;;4991164;28;20745;-51
2021/04/25 00:50:32;;;;;;;14.45;13.15;;;31.60;93.30;;;;;;4991643;28;20282;-49
2021/04/25 00:53:02;;;;;;;13.45;12.35;;;31.60;93.40;;;;;;4990794;28;20208;-49
2021/04/25 00:55:32;;;;;;;13.50;12.30;;;31.60;93.40;;;;;;4990984;28;20563;-49
2021/04/25 00:58:04;;;;;;;14.23;13.02;;;31.60;93.40;;;;;;4990809;28;20207;-50
2021/04/25 01:00:34;;;;;;;12.95;11.85;;;31.60;93.50;;;;;;4990381;28;20322;-52
2021/04/25 01:03:04;;;;;;;13.32;12.25;;;31.60;93.50;;;;;;4988394;28;20240;-52
2021/04/25 01:05:36;;;;;;;13.30;12.20;;;31.60;93.50;;;;;;4981162;28;20266;-50
2021/04/25 01:08:07;;;;;;;11.82;10.82;;;31.60;93.60;;;;;;4990746;28;20196;-50
2021/04/25 01:10:37;;;;;;;12.75;11.75;;;31.60;93.60;;;;;;4990718;28;20586;-53
2021/04/25 01:13:07;;;;;;;13.70;12.57;;;31.60;93.60;;;;;;4948142;29;20213;-51
2021/04/25 01:15:38;;;;;;;13.38;12.23;;;31.60;93.70;;;;;;4910738;29;20215;-54
2021/04/25 01:18:08;;;;;;;13.68;12.40;;;31.60;93.80;;;;;;4910960;29;20218;-52
2021/04/25 01:20:40;;;;;;;13.40;12.40;;;31.60;93.80;;;;;;4854925;29;20216;-51
2021/04/25 01:23:12;;;;;;;13.38;12.27;;;31.60;93.90;;;;;;4854032;29;20220;-49
2021/04/25 01:25:42;;;;;;;12.90;11.82;;;31.60;94.00;;;;;;4853208;29;20680;-48
2021/04/25 01:28:12;;;;;;;12.93;11.90;;;31.60;94.30;;;;;;4854621;29;20217;-49
2021/04/25 01:30:43;;;;;;;12.93;11.73;;;31.60;93.90;;;;;;4854485;29;20620;-49
2021/04/25 01:33:13;;;;;;;13.30;12.18;;;31.60;94.00;;;;;;4854271;29;20265;-51
2021/04/25 01:35:43;;;;;;;12.82;11.68;;;31.60;94.00;;;;;;4853750;29;20216;-49
2021/04/25 01:38:15;;;;;;;14.13;13.02;;;31.60;94.10;;;;;;4853791;29;20205;-51
2021/04/25 01:40:45;;;;;;;14.43;13.32;;;31.60;94.10;;;;;;4854512;29;20448;-49
2021/04/25 01:43:16;;;;;;;14.70;13.30;;;31.60;94.10;;;;;;4862445;29;20246;-51
2021/04/25 01:45:46;;;;;;;14.05;12.85;;;31.60;94.10;;;;;;4915126;29;20217;-55
2021/04/25 01:48:17;;;;;;;13.93;12.75;;;31.60;94.10;;;;;;4947981;29;20202;-50
2021/04/25 01:50:47;;;;;;;15.20;13.90;;;31.60;94.20;;;;;;4954217;28;20222;-50
2021/04/25 01:53:19;;;;;;;14.85;13.57;;;31.70;94.20;;;;;;4990086;28;20207;-50
2021/04/25 01:55:49;;;;;;;16.60;15.07;;;31.70;94.10;;;;;;4988650;28;20200;-49
2021/04/25 01:58:19;;;;;;;16.65;15.13;;;31.70;94.00;;;;;;4989431;28;20212;-49
2021/04/25 02:00:50;;;;;;;18.10;16.33;;;31.70;94.00;;;;;;4989992;28;20653;-50
2021/04/25 02:03:20;;;;;;;16.70;15.18;;;31.70;93.90;;;;;;4989547;28;20250;-52
2021/04/25 02:05:50;;;;;;;17.58;15.95;;;31.70;93.90;;;;;;4989907;28;20216;-52
2021/04/25 02:08:21;;;;;;;18.92;17.13;;;31.70;93.90;;;;;;4989028;28;20255;-55
2021/04/25 02:10:52;;;;;;;18.25;16.48;;;31.70;93.90;;;;;;4989404;28;20238;-53
2021/04/25 02:13:22;;;;;;;19.67;17.67;;;31.70;93.90;;;;;;4989823;28;20200;-48
2021/04/25 02:15:52;;;;;;;19.23;17.27;;;31.70;93.90;;;;;;4989760;28;20212;-48
2021/04/25 02:18:23;;;;;;;18.95;16.88;;;31.70;93.90;;;;;;4989064;28;20196;-51
2021/04/25 02:20:53;;;;;;;18.10;16.33;;;31.80;94.00;;;;;;4988725;28;20283;-48
2021/04/25 02:23:25;;;;;;;18.75;16.77;;;31.80;94.00;;;;;;4989186;28;20553;-51
2021/04/25 02:25:55;;;;;;;17.98;16.27;;;31.80;94.20;;;;;;4989081;28;20196;-51
2021/04/25 02:28:25;;;;;;;19.40;17.40;;;31.80;94.20;;;;;;4989095;28;20606;-49
2021/04/25 02:30:56;;;;;;;18.80;16.95;;;31.90;94.40;;;;;;4988514;28;20260;-49
2021/04/25 02:33:26;;;;;;;19.92;17.83;;;31.90;94.40;;;;;;4989202;28;20215;-51
2021/04/25 02:35:56;;;;;;;21.60;18.38;;;31.90;94.50;;;;;;4989701;28;20204;-53
2021/04/25 02:38:28;;;;;;;20.00;17.92;;;31.90;94.50;;;;;;4989794;28;20197;-53
2021/04/25 02:40:58;;;;;;;17.33;15.70;;;32.00;94.60;;;;;;4988790;28;20192;-48
2021/04/25 02:43:28;;;;;;;18.42;16.63;;;32.00;94.60;;;;;;4986938;28;20873;-48
2021/04/25 02:45:59;;;;;;;17.35;15.52;;;32.00;94.70;;;;;;4979110;28;20196;-50
2021/04/25 02:48:30;;;;;;;17.85;16.15;;;32.10;94.60;;;;;;4989401;28;20196;-49
2021/04/25 02:51:01;;;;;;;17.77;16.08;;;32.10;94.60;;;;;;4989174;28;20262;-48
2021/04/25 02:53:32;;;;;;;16.63;14.98;;;32.20;94.60;;;;;;4989137;28;20204;-51
2021/04/25 02:56:03;;;;;;;18.00;16.23;;;32.20;94.60;;;;;;4989143;28;20208;-48
2021/04/25 02:58:33;;;;;;;17.75;16.08;;;32.20;94.60;;;;;;4989468;28;20204;-51
2021/04/25 03:01:03;;;;;;;16.70;15.20;;;32.30;94.70;;;;;;4989032;28;20236;-53
2021/04/25 03:03:33;;;;;;;17.17;15.65;;;32.40;94.70;;;;;;4988746;28;20243;-51
2021/04/25 03:06:04;;;;;;;15.93;14.52;;;32.40;94.60;;;;;;4987501;28;20196;-53
2021/04/25 03:08:35;;;;;;;16.17;14.57;;;32.50;94.60;;;;;;4993180;28;20210;-51
2021/04/25 03:11:05;;;;;;;16.20;14.75;;;32.60;94.40;;;;;;4993474;28;20320;-50
2021/04/25 03:13:36;;;;;;;16.23;14.73;;;32.70;94.30;;;;;;4993259;28;20212;-51
2021/04/25 03:16:06;;;;;;;15.88;14.27;;;32.70;94.30;;;;;;4992097;28;20211;-48
2021/04/25 03:18:37;;;;;;;15.68;14.27;;;32.90;94.40;;;;;;4992873;28;20268;-50
2021/04/25 03:21:07;;;;;;;14.38;13.15;;;33.00;94.30;;;;;;4992980;28;20207;-53
2021/04/25 03:23:43;;;;;;;13.20;12.15;;;33.10;93.60;;;;;;4993413;28;20206;-51
2021/04/25 03:26:14;;;;;;;14.15;12.95;;;33.20;93.30;;;;;;4992525;28;20409;-48
2021/04/25 03:28:44;;;;;;;13.05;11.95;;;33.30;92.80;;;;;;4992181;28;20204;-49
2021/04/25 03:31:15;;;;;;;12.73;11.75;;;33.40;92.50;;;;;;4992711;28;20204;-50
2021/04/25 03:46:34;;;;;;;14.90;13.50;;;33.70;90.10;;;;;;5128038;27;20544;-53
2021/04/25 03:49:04;;;;;;;14.57;13.43;;;33.80;87.70;;;;;;5129704;28;20202;-51
2021/04/25 03:51:35;;;;;;;12.88;11.77;;;33.90;86.90;;;;;;5129372;28;20202;-48
2021/04/25 03:54:06;;;;;;;13.68;12.38;;;34.10;87.50;;;;;;5128785;28;20285;-51
2021/04/25 03:56:36;;;;;;;15.50;14.20;;;34.20;87.10;;;;;;5129859;28;20191;-48
2021/04/25 03:59:07;;;;;;;16.05;14.60;;;34.30;85.00;;;;;;5129701;28;20203;-49
2021/04/25 04:01:38;;;;;;;15.80;14.23;;;34.30;84.30;;;;;;5129774;28;20635;-47
2021/04/25 04:04:08;;;;;;;15.75;14.35;;;34.40;84.60;;;;;;5128674;28;20264;-48
2021/04/25 04:06:39;;;;;;;14.57;13.20;;;34.40;83.90;;;;;;5123459;28;20191;-50
2021/04/25 04:09:09;;;;;;;13.40;12.25;;;34.40;83.20;;;;;;5118859;28;20199;-50
2021/04/25 04:11:40;;;;;;;12.52;11.48;;;34.50;82.80;;;;;;5129050;28;20188;-50
2021/04/25 04:14:16;;;;;;;13.35;12.15;;;34.50;83.20;;;;;;5127360;28;20216;-50
2021/04/25 04:16:48;;;;;;;13.48;12.38;;;34.50;83.00;;;;;;5114535;28;20306;-48
2021/04/25 04:19:19;;;;;;;14.55;13.10;;;34.50;83.10;;;;;;5113666;28;20204;-48
2021/04/25 04:21:50;;;;;;;13.82;12.63;;;34.60;82.50;;;;;;5125687;28;20281;-51
2021/04/25 04:24:20;;;;;;;12.50;11.43;;;34.60;82.50;;;;;;5126030;28;20191;-51
2021/04/25 04:26:50;;;;;;;14.25;13.05;;;34.70;82.50;;;;;;5125352;28;20650;-52
2021/04/25 04:29:21;;;;;;;13.30;11.98;;;34.70;81.60;;;;;;5125106;28;20196;-48
2021/04/25 04:31:55;;;;;;;13.63;12.43;;;34.80;81.00;;;;;;5125829;28;20191;-50
2021/04/25 04:34:26;;;;;;;15.85;14.55;;;34.90;81.30;;;;;;5125691;28;20314;-48
2021/04/25 04:36:56;;;;;;;16.50;14.98;;;34.90;80.60;;;;;;5104463;28;20326;-51
2021/04/25 04:39:27;;;;;;;15.65;14.35;;;34.90;79.70;;;;;;5100089;28;20208;-50
2021/04/25 04:41:58;;;;;;;14.80;13.60;;;34.90;80.30;;;;;;5096451;28;20207;-53
2021/04/25 04:44:29;;;;;;;13.32;12.32;;;34.90;80.00;;;;;;5097558;28;20321;-54
2021/04/25 04:47:01;;;;;;;16.30;14.90;;;34.90;80.50;;;;;;5093357;28;20204;-52
2021/04/25 04:49:32;;;;;;;15.52;14.25;;;34.90;79.40;;;;;;5090738;28;20209;-53
2021/04/25 04:52:05;;;;;;;14.20;13.00;;;35.00;79.40;;;;;;5086040;28;20231;-50
2021/04/25 04:54:36;;;;;;;15.60;14.23;;;35.00;79.90;;;;;;5086078;28;20312;-52
2021/04/25 04:57:09;;;;;;;15.77;14.35;;;35.00;79.00;;;;;;5091832;28;20207;-49
2021/04/25 04:59:40;;;;;;;15.43;14.13;;;35.00;78.70;;;;;;5090495;28;20189;-50
2021/04/25 05:02:14;;;;;;;13.77;12.52;;;35.00;78.40;;;;;;5091019;28;20973;-51
2021/04/25 05:04:45;;;;;;;14.80;13.60;;;35.00;78.80;;;;;;5090008;28;20208;-50
2021/04/25 05:07:15;;;;;;;15.05;13.85;;;35.00;78.20;;;;;;5090084;28;20200;-52
2021/04/25 05:09:45;;;;;;;15.43;14.13;;;35.00;77.80;;;;;;5090501;28;20212;-53
2021/04/25 05:12:16;;;;;;;13.43;12.23;;;35.00;77.30;;;;;;5089895;28;20735;-55
2021/04/25 05:14:46;;;;;;;15.20;13.90;;;35.00;78.00;;;;;;5091377;28;20258;-52
2021/04/25 05:17:18;;;;;;;14.55;13.38;;;35.00;77.90;;;;;;5090146;28;20204;-51
2021/04/25 05:19:48;;;;;;;13.85;12.65;;;34.90;78.30;;;;;;5090864;28;20207;-52
2021/04/25 05:22:19;;;;;;;13.93;12.73;;;34.90;78.70;;;;;;5089534;28;20561;-52
2021/04/25 05:24:49;;;;;;;14.10;12.88;;;34.90;78.90;;;;;;5085084;28;20228;-53
2021/04/25 05:27:19;;;;;;;13.52;12.48;;;35.00;79.10;;;;;;5078099;28;20233;-48
2021/04/25 05:29:50;;;;;;;14.38;13.07;;;35.00;78.10;;;;;;5085857;28;20660;-48
2021/04/25 05:32:22;;;;;;;14.88;13.57;;;35.00;78.20;;;;;;5090723;28;20851;-49
2021/04/25 05:34:53;;;;;;;14.95;13.55;;;35.00;78.10;;;;;;5077068;28;20220;-51
2021/04/25 05:37:23;;;;;;;14.43;13.18;;;35.00;77.90;;;;;;5091552;28;20209;-50
2021/04/25 05:39:53;;;;;;;14.48;12.13;;;35.00;77.80;;;;;;5092319;28;20189;-47
2021/04/25 05:42:25;;;;;;;12.98;11.65;;;35.10;78.30;;;;;;5091224;28;20439;-50
2021/04/25 05:44:56;;;;;;;12.52;11.48;;;35.20;78.80;;;;;;5091326;28;20255;-50
2021/04/25 05:47:27;;;;;;;15.07;13.70;;;35.20;78.50;;;;;;5090674;28;20228;-53
2021/04/25 05:49:58;;;;;;;13.00;11.77;;;35.20;76.50;;;;;;5090794;28;20227;-50
2021/04/25 05:52:29;;;;;;;14.38;13.00;;;35.30;77.10;;;;;;5089712;28;20207;-53
2021/04/25 05:55:00;;;;;;;12.68;11.68;;;35.30;76.80;;;;;;5090181;28;20227;-50
2021/04/25 05:57:30;;;;;;;12.98;11.93;;;35.40;77.20;;;;;;5086769;28;20226;-50
2021/04/25 06:00:01;;;;;;;10.80;10.00;;;35.50;77.30;;;;;;5090839;28;20208;-53
2021/04/25 06:02:33;;;;;;;12.77;11.77;;;35.50;77.60;;;;;;5091300;28;20283;-49
2021/04/25 06:05:04;;;;;;;13.00;11.80;;;35.60;77.00;;;;;;5089783;28;20902;-51
2021/04/25 06:07:37;;;;;;;13.27;12.07;;;35.60;75.30;;;;;;5090867;28;20209;-48
2021/04/25 06:10:13;;;;;;;11.93;11.02;;;35.60;75.10;;;;;;5090007;28;20624;-49
2021/04/25 06:12:46;;;;;;;12.85;11.85;;;35.60;75.60;;;;;;5091044;28;20192;-48
2021/04/25 06:15:16;;;;;;;12.70;11.70;;;35.60;75.50;;;;;;5089776;28;20205;-49
2021/04/25 06:17:48;;;;;;;13.68;12.27;;;35.60;75.10;;;;;;5087985;28;20210;-53
2021/04/25 06:20:18;;;;;;;13.77;12.57;;;35.60;75.10;;;;;;5089554;28;20224;-48
2021/04/25 06:22:52;;;;;;;12.43;11.43;;;35.60;74.10;;;;;;5089587;28;20574;-52
2021/04/25 06:25:23;;;;;;;13.13;12.02;;;35.60;74.70;;;;;;5090123;28;20224;-53
2021/04/25 06:27:59;;;;;;;13.13;11.73;;;35.50;74.70;;;;;;5087522;28;20197;-52
2021/04/25 06:30:30;;;;;;;12.48;11.48;;;35.50;75.10;;;;;;5087703;28;20265;-52
2021/04/25 06:33:02;;;;;;;12.05;11.15;;;35.40;74.90;;;;;;5090026;28;20260;-51
2021/04/25 06:35:32;;;;;;;10.88;9.98;;;35.40;74.80;;;;;;5087623;28;20315;-51
2021/04/25 06:38:03;;;;;;;10.73;9.73;;;35.40;75.40;;;;;;5090504;28;20197;-51
2021/04/25 06:40:36;;;;;;;11.90;10.90;;;35.30;75.20;;;;;;5088570;28;20212;-54
2021/04/25 06:43:07;;;;;;;11.95;11.05;;;35.30;75.20;;;;;;5089752;28;20197;-49
2021/04/25 06:45:37;;;;;;;12.18;11.13;;;35.30;75.10;;;;;;5089311;28;20240;-52
2021/04/25 06:48:09;;;;;;;11.68;10.57;;;35.30;75.10;;;;;;5089731;28;20262;-50
2021/04/25 06:50:40;;;;;;;11.18;10.20;;;35.30;74.80;;;;;;5090320;28;20193;-50
2021/04/25 06:53:11;;;;;;;11.35;9.95;;;35.30;75.20;;;;;;5088759;28;20640;-52
2021/04/25 06:55:42;;;;;;;10.55;9.63;;;35.30;75.90;;;;;;5089179;28;20232;-52
2021/04/25 06:58:12;;;;;;;10.80;9.82;;;35.30;76.20;;;;;;5088190;28;20193;-48
2021/04/25 07:00:43;;;;;;;11.50;10.50;;;35.30;76.80;;;;;;5089032;28;20229;-49
2021/04/25 07:03:15;;;;;;;11.00;10.00;;;35.30;77.10;;;;;;5089793;28;20649;-52
2021/04/25 07:05:46;;;;;;;10.88;9.88;;;35.40;77.40;;;;;;5088931;28;20189;-51
2021/04/25 07:08:18;;;;;;;9.13;8.43;;;35.40;78.20;;;;;;5088945;28;20672;-48
2021/04/25 07:11:00;;;;;;;10.18;9.27;;;35.40;77.50;;;;;;5088444;28;21021;-49
2021/04/25 07:13:31;;;;;;;10.18;9.32;;;35.40;78.20;;;;;;5089304;28;20196;-52
2021/04/25 07:16:02;;;;;;;10.70;9.70;;;35.40;77.00;;;;;;5088724;28;20212;-50
2021/04/25 07:18:34;;;;;;;11.23;10.10;;;35.50;77.40;;;;;;5088736;28;20189;-52
2021/04/25 07:21:05;;;;;;;11.48;10.52;;;35.50;75.90;;;;;;5088280;28;20250;-50
2021/04/25 07:23:35;;;;;;;11.07;10.07;;;35.50;75.60;;;;;;5088441;28;20203;-53
2021/04/25 07:26:09;;;;;;;9.85;9.07;;;35.50;75.30;;;;;;5087670;28;20636;-49
2021/04/25 07:28:46;;;;;;;10.27;9.30;;;35.50;75.70;;;;;;5088203;28;20277;-51
2021/04/25 07:31:17;;;;;;;10.05;9.32;;;35.50;76.70;;;;;;5088660;28;20270;-51
2021/04/25 07:33:49;;;;;;;10.30;9.50;;;35.50;76.70;;;;;;5088500;28;20197;-52
2021/04/25 07:36:20;;;;;;;10.55;9.75;;;35.50;76.90;;;;;;5088235;28;20239;-51
2021/04/25 07:38:50;;;;;;;10.70;9.88;;;35.50;77.20;;;;;;5090339;28;20671;-49
2021/04/25 07:41:21;;;;;;;10.40;9.45;;;35.60;77.10;;;;;;5089837;28;20723;-53
2021/04/25 07:43:51;;;;;;;9.23;8.52;;;35.60;77.20;;;;;;5090258;28;20803;-49
2021/04/25 07:46:22;;;;;;;10.73;9.82;;;35.60;77.30;;;;;;5089625;28;20720;-52
2021/04/25 07:48:53;;;;;;;11.05;10.07;;;35.60;77.10;;;;;;5083821;28;20211;-49
2021/04/25 07:51:23;;;;;;;10.48;9.68;;;35.60;76.40;;;;;;5090689;28;20260;-50
2021/04/25 07:53:55;;;;;;;11.25;10.45;;;35.60;77.00;;;;;;5089626;28;20234;-49
2021/04/25 07:56:26;;;;;;;10.93;9.93;;;35.60;76.60;;;;;;5088647;28;20244;-49
2021/04/25 07:58:57;;;;;;;9.75;9.05;;;35.50;76.50;;;;;;5090152;28;20197;-49
2021/04/25 08:01:27;;;;;;;9.07;8.25;;;35.50;75.50;;;;;;5087417;28;20198;-53
2021/04/25 08:03:59;;;;;;;8.60;7.97;;;35.40;75.00;;;;;;5089926;28;20219;-48
2021/04/25 08:06:30;;;;;;;9.35;8.55;;;35.40;74.70;;;;;;5091435;28;20201;-48
2021/04/25 08:09:00;;;;;;;9.00;8.23;;;35.40;74.70;;;;;;5090536;28;20197;-54
2021/04/25 08:11:30;;;;;;;9.00;8.30;;;35.40;74.80;;;;;;5091606;28;20620;-54
2021/04/25 08:14:01;;;;;;;9.15;8.45;;;35.30;74.90;;;;;;5090540;28;20215;-53
2021/04/25 08:16:31;;;;;;;8.85;8.15;;;35.20;74.80;;;;;;5090724;28;20209;-52
2021/04/25 08:19:03;;;;;;;8.90;8.20;;;35.20;75.20;;;;;;5091015;28;20552;-51
2021/04/25 08:21:34;;;;;;;9.52;8.73;;;35.20;75.20;;;;;;5092227;28;20248;-49
2021/04/25 08:24:09;;;;;;;8.98;8.18;;;35.10;74.10;;;;;;5094327;28;20216;-52
2021/04/25 08:26:40;;;;;;;8.27;7.47;;;35.10;74.30;;;;;;5094754;28;20189;-50
2021/04/25 08:29:10;;;;;;;9.10;8.20;;;35.10;74.60;;;;;;5093815;28;20189;-52
2021/04/25 08:31:41;;;;;;;9.38;8.30;;;35.00;74.70;;;;;;5094865;28;20682;-50
2021/04/25 08:34:13;;;;;;;8.43;7.78;;;34.90;74.70;;;;;;5094728;28;20258;-48
2021/04/25 08:36:43;;;;;;;9.05;8.35;;;34.90;75.00;;;;;;5094564;28;20231;-53
2021/04/25 08:39:14;;;;;;;8.00;7.40;;;34.80;75.20;;;;;;5092418;28;20279;-49
2021/04/25 08:41:44;;;;;;;8.93;8.13;;;34.80;75.20;;;;;;5093700;28;20193;-48
2021/04/25 08:44:18;;;;;;;8.40;7.80;;;34.80;75.50;;;;;;5028589;28;20578;-49
2021/04/25 08:46:49;;;;;;;8.90;8.10;;;34.80;75.50;;;;;;4972406;28;20197;-53
2021/04/25 08:49:23;;;;;;;8.48;7.80;;;34.80;75.50;;;;;;4971939;28;20727;-50
2021/04/25 08:51:54;;;;;;;8.27;7.50;;;34.80;75.60;;;;;;4969852;28;21144;-51
2021/04/25 08:54:25;;;;;;;7.55;6.95;;;34.80;76.00;;;;;;4970950;28;20220;-50
2021/04/25 08:56:56;;;;;;;8.98;8.27;;;34.80;76.20;;;;;;4971792;28;20240;-52
2021/04/25 08:59:26;;;;;;;8.55;7.82;;;34.80;77.20;;;;;;4971917;28;20301;-48
2021/04/25 09:01:57;;;;;;;8.98;8.18;;;34.80;76.40;;;;;;4971844;28;20956;-49
2021/04/25 09:04:29;;;;;;;8.30;7.68;;;34.90;76.70;;;;;;4971836;28;20264;-48
2021/04/25 09:07:00;;;;;;;9.32;8.40;;;35.00;77.10;;;;;;4971867;28;20205;-49
2021/04/25 09:09:49;;;;;;;9.30;8.50;;;35.10;77.30;;;;;;4971947;28;20869;-47
2021/04/25 09:12:35;;;;;;;10.35;9.45;;;35.20;77.10;;;;;;4969849;28;20683;-52
2021/04/25 09:15:07;;;;;;;10.18;9.35;;;35.30;77.00;;;;;;4995112;28;20222;-51
2021/04/25 09:17:50;;;;;;;10.50;9.45;;;35.40;77.10;;;;;;5057776;28;20296;-50
2021/04/25 09:20:21;;;;;;;10.77;9.77;;;35.50;76.70;;;;;;5093581;28;20822;-52
2021/04/25 09:22:52;;;;;;;10.65;9.55;;;35.60;76.50;;;;;;5093070;28;20212;-52
2021/04/25 09:25:22;;;;;;;10.73;9.82;;;35.70;76.20;;;;;;5093544;28;20250;-51
2021/04/25 09:27:52;;;;;;;10.52;9.70;;;35.70;75.50;;;;;;5093133;28;20221;-50
2021/04/25 09:30:23;;;;;;;10.90;10.05;;;35.80;75.50;;;;;;5092427;28;20540;-52
2021/04/25 09:33:01;;;;;;;11.40;10.25;;;35.90;75.50;;;;;;5090112;28;20207;-51
2021/04/25 09:35:33;;;;;;;12.50;11.40;;;35.90;75.80;;;;;;5092491;28;20371;-52
2021/04/25 09:38:11;;;;;;;13.43;12.23;;;36.00;75.10;;;;;;5092938;28;20661;-50
2021/04/25 09:40:42;;;;;;;12.27;11.02;;;36.00;73.90;;;;;;5090998;28;20200;-48
2021/04/25 09:43:12;;;;;;;12.73;11.50;;;36.00;74.30;;;;;;5090405;28;20189;-48
2021/04/25 09:45:43;;;;;;;13.88;12.52;;;36.00;74.30;;;;;;5093257;28;20361;-52
2021/04/25 09:48:37;;;;;;;14.07;12.68;;;36.00;74.10;;;;;;5092330;28;20199;-48
2021/04/25 09:51:13;;;;;;;13.38;12.07;;;36.00;73.80;;;;;;5073835;28;20222;-49
2021/04/25 09:53:43;;;;;;;18.55;15.23;;;36.00;74.00;;;;;;5091213;28;20232;-49
2021/04/25 09:56:14;;;;;;;16.65;15.07;;;36.00;73.80;;;;;;5092248;28;20266;-48
2021/04/25 09:59:03;;;;;;;18.80;16.92;;;36.00;73.50;;;;;;5091897;28;20242;-49
2021/04/25 10:01:34;;;;;;;14.88;13.48;;;35.90;73.50;;;;;;5091815;28;20205;-48
2021/04/25 10:04:05;;;;;;;14.48;12.98;;;35.80;73.70;;;;;;5092178;28;20212;-51
2021/04/25 10:06:53;;;;;;;12.13;11.05;;;35.70;73.80;;;;;;5092137;28;20565;-49
2021/04/25 10:09:23;;;;;;;14.30;13.00;;;35.70;74.40;;;;;;5090421;28;20697;-48
2021/04/25 10:11:54;;;;;;;15.07;13.68;;;35.60;74.20;;;;;;5091657;28;20201;-48
2021/04/25 10:14:25;;;;;;;14.68;13.38;;;35.60;74.40;;;;;;5092932;28;20284;-51
2021/04/25 10:16:55;;;;;;;14.95;13.65;;;35.50;75.30;;;;;;5091813;28;20586;-52
2021/04/25 10:19:26;;;;;;;13.50;12.13;;;35.50;74.70;;;;;;5091724;28;20201;-51
2021/04/25 10:21:57;;;;;;;15.20;13.80;;;35.40;74.80;;;;;;5088489;28;20204;-51
2021/04/25 10:24:27;;;;;;;19.05;17.17;;;35.40;75.10;;;;;;5090955;28;20197;-49
2021/04/25 10:27:03;;;;;;;18.55;16.63;;;35.30;75.40;;;;;;5091123;28;20188;-49
2021/04/25 10:29:37;;;;;;;19.15;17.25;;;35.30;75.60;;;;;;5091235;28;20228;-51
2021/04/25 10:32:09;;;;;;;18.23;16.35;;;35.30;75.70;;;;;;5091082;28;20197;-50
2021/04/25 10:34:39;;;;;;;13.85;12.52;;;35.20;75.80;;;;;;5091432;28;20224;-48
2021/04/25 10:37:11;;;;;;;15.35;13.90;;;35.20;75.60;;;;;;5092293;28;20203;-49
2021/04/25 10:39:49;;;;;;;14.88;13.55;;;35.20;75.90;;;;;;5091897;28;20794;-53
2021/04/25 10:42:40;;;;;;;16.65;14.65;;;35.20;75.80;;;;;;5092092;28;20209;-52
2021/04/25 10:45:25;;;;;;;14.05;12.77;;;35.10;75.70;;;;;;5086229;28;20232;-50
2021/04/25 10:48:23;;;;;;;11.85;10.80;;;35.20;75.60;;;;;;5091362;28;20209;-50
2021/04/25 10:51:14;;;;;;;10.38;9.45;;;35.20;75.50;;;;;;5091845;28;20212;-53
2021/04/25 10:53:46;;;;;;;12.98;11.75;;;35.20;76.00;;;;;;5091587;28;20203;-50
2021/04/25 10:56:27;;;;;;;11.48;10.40;;;35.20;75.50;;;;;;5091310;28;20228;-49
2021/04/25 10:59:28;;;;;;;11.70;10.60;;;35.30;75.30;;;;;;5091887;28;20250;-50
2021/04/25 11:02:02;;;;;;;11.52;10.52;;;35.30;75.10;;;;;;5091457;28;20210;-50
2021/04/25 11:04:58;;;;;;;10.70;9.80;;;35.40;75.40;;;;;;5091442;28;20200;-49
2021/04/25 11:07:44;;;;;;;12.60;11.50;;;35.40;75.20;;;;;;5090782;28;20216;-50
2021/04/25 11:10:20;;;;;;;13.77;12.48;;;35.50;74.00;;;;;;5090781;28;20228;-52
2021/04/25 11:12:50;;;;;;;16.17;14.48;;;35.50;73.50;;;;;;5089153;28;20211;-50
2021/04/25 11:15:48;;;;;;;16.27;13.48;;;35.40;73.20;;;;;;5091025;28;20691;-51
2021/04/25 11:18:59;;;;;;;14.20;12.82;;;35.40;73.50;;;;;;5091603;28;20228;-48
2021/04/25 11:21:55;;;;;;;13.15;11.88;;;35.30;73.50;;;;;;5091571;28;20197;-52
2021/04/25 11:24:36;;;;;;;11.65;10.65;;;35.20;73.80;;;;;;5091569;28;20208;-48
2021/04/25 11:27:08;;;;;;;12.70;11.38;;;35.10;73.90;;;;;;5088545;28;20640;-52
2021/04/25 11:30:01;;;;;;;13.27;11.98;;;35.00;74.10;;;;;;5088006;28;20615;-49
2021/04/25 11:32:39;;;;;;;15.15;13.75;;;34.90;74.60;;;;;;5085843;28;20254;-48
2021/04/25 11:35:12;;;;;;;14.90;13.27;;;34.90;74.70;;;;;;5091087;28;20220;-49
2021/04/25 11:37:44;;;;;;;15.45;13.95;;;34.80;74.40;;;;;;5091595;28;20285;-48
2021/04/25 11:40:14;;;;;;;14.07;12.70;;;34.70;74.20;;;;;;5091285;28;20257;-49
2021/04/25 11:42:50;;;;;;;14.23;12.93;;;34.60;74.30;;;;;;5028280;28;20203;-47
2021/04/25 11:45:28;;;;;;;14.07;12.77;;;34.50;74.60;;;;;;5028185;28;20669;-49
2021/04/25 11:48:12;;;;;;;14.00;12.60;;;34.50;74.50;;;;;;5023936;28;20281;-53
2021/04/25 11:50:43;;;;;;;13.40;12.13;;;34.40;74.50;;;;;;5021040;28;20198;-49
2021/04/25 11:53:13;;;;;;;14.20;13.00;;;34.40;74.60;;;;;;5028540;28;20329;-50
2021/04/25 11:55:44;;;;;;;14.95;13.50;;;34.30;74.60;;;;;;4970327;28;20271;-50
2021/04/25 11:58:20;;;;;;;14.43;13.02;;;34.30;74.80;;;;;;4974076;28;20212;-50
2021/04/25 12:00:55;;;;;;;14.25;12.85;;;34.20;75.00;;;;;;4973648;28;20869;-51
2021/04/25 12:03:25;;;;;;;14.65;13.35;;;34.20;75.00;;;;;;4974277;28;20299;-47
2021/04/25 12:05:58;;;;;;;14.27;13.00;;;34.10;75.20;;;;;;4972950;28;20200;-52
2021/04/25 12:08:28;;;;;;;14.07;12.68;;;34.10;75.50;;;;;;4970885;28;20238;-50
2021/04/25 12:10:59;;;;;;;14.60;13.15;;;34.00;75.60;;;;;;4970779;28;20205;-48
2021/04/25 12:13:32;;;;;;;15.32;13.85;;;34.00;75.70;;;;;;4994078;28;20638;-48
2021/04/25 12:16:04;;;;;;;20.85;18.85;;;34.00;76.00;;;;;;5029381;28;20714;-48
2021/04/25 12:18:36;;;;;;;26.10;22.67;;;33.90;76.10;;;;;;5028659;28;20325;-54
2021/04/25 12:21:07;;;;;;;28.25;24.25;;;33.90;76.20;;;;;;5027855;28;20269;-50
2021/04/25 12:23:48;;;;;;;30.58;27.30;;;33.90;76.50;;;;;;5028198;28;20215;-55
2021/04/25 12:26:20;;;;;;;39.03;32.65;;;33.80;76.60;;;;;;5048953;28;20204;-53
2021/04/25 12:28:53;;;;;;;34.22;29.92;;;33.70;76.50;;;;;;5092269;28;20224;-53
2021/04/25 12:31:28;;;;;;;29.95;26.80;;;33.70;76.90;;;;;;5091820;28;20204;-50
2021/04/25 12:33:59;;;;;;;28.08;25.30;;;33.70;76.70;;;;;;5086213;28;20663;-55
2021/04/25 12:36:30;;;;;;;25.38;22.70;;;33.60;76.90;;;;;;5091370;28;20307;-54
2021/04/25 12:39:01;;;;;;;24.98;22.20;;;33.60;77.00;;;;;;5091806;28;20208;-53
2021/04/25 12:41:40;;;;;;;24.40;21.73;;;33.60;77.40;;;;;;5092030;28;20193;-51
2021/04/25 12:44:11;;;;;;;21.77;19.48;;;33.50;77.50;;;;;;5084423;28;20253;-54
2021/04/25 12:46:41;;;;;;;22.27;19.50;;;33.50;77.60;;;;;;5091766;28;20196;-51
2021/04/25 12:49:12;;;;;;;19.88;17.92;;;33.40;77.80;;;;;;5091717;28;20185;-51
2021/04/25 12:51:47;;;;;;;21.95;17.38;;;33.40;77.90;;;;;;5091146;28;20189;-50
2021/04/25 12:54:18;;;;;;;23.08;16.98;;;33.40;78.30;;;;;;5089993;28;20196;-53
2021/04/25 12:56:59;;;;;;;18.85;17.05;;;33.30;78.20;;;;;;5091501;28;20208;-52
2021/04/25 12:59:34;;;;;;;20.05;17.95;;;33.30;78.70;;;;;;5090241;28;20212;-50
2021/04/25 13:02:10;;;;;;;17.75;16.13;;;33.30;78.70;;;;;;5091658;28;20192;-49
2021/04/25 13:04:41;;;;;;;18.33;16.63;;;33.30;78.90;;;;;;5091483;28;20778;-54
2021/04/25 13:07:24;;;;;;;18.67;16.67;;;33.20;78.90;;;;;;5090737;28;20204;-55
2021/04/25 13:10:33;;;;;;;16.17;14.57;;;33.20;79.40;;;;;;5091518;28;20295;-52